createdAt,value
2022-11-19T00:02:22.346Z,98897.75
2022-11-19T00:05:06.277Z,98886.47
2022-11-19T00:07:50.066Z,98895.75
2022-11-19T00:10:35.555Z,98893.31
2022-11-19T00:13:18.302Z,98912.06
2022-11-19T00:16:05.138Z,98920.22
2022-11-19T00:18:48.855Z,98922.66
2022-11-19T00:21:32.890Z,98895.41
2022-11-19T00:24:16.913Z,98855.72
2022-11-19T00:27:00.960Z,98886.00
2022-11-19T00:29:44.831Z,98905.19
2022-11-19T00:32:31.082Z,98937.94
2022-11-19T00:35:16.235Z,98914.94
2022-11-19T00:38:00.055Z,98938.16
2022-11-19T00:40:43.963Z,98946.53
2022-11-19T00:43:53.852Z,98952.53
2022-11-19T00:46:37.543Z,98938.31
2022-11-19T00:49:22.699Z,98952.69
2022-11-19T00:52:06.888Z,98960.09
2022-11-19T00:54:50.679Z,98937.34
2022-11-19T00:57:34.348Z,98948.41
2022-11-19T01:00:18.857Z,98911.19
2022-11-19T01:03:02.639Z,98948.81
2022-11-19T01:05:47.809Z,98940.78
2022-11-19T01:08:31.558Z,98952.03
2022-11-19T01:11:18.461Z,98959.72
2022-11-19T01:14:03.377Z,98922.66
2022-11-19T01:16:47.453Z,98966.22
2022-11-19T01:19:31.520Z,98972.41
2022-11-19T01:22:17.024Z,98965.69
2022-11-19T01:25:01.031Z,98935.91
2022-11-19T01:27:45.242Z,98980.56
2022-11-19T01:30:29.253Z,98982.25
2022-11-19T01:33:13.446Z,98981.25
2022-11-19T01:36:01.214Z,98994.53
2022-11-19T01:38:50.684Z,98978.16
2022-11-19T01:41:35.037Z,98970.84
2022-11-19T01:45:01.621Z,98995.63
2022-11-19T01:47:47.364Z,98999.03
2022-11-19T01:50:34.092Z,98986.81
2022-11-19T01:53:19.363Z,98994.84
2022-11-19T01:56:07.905Z,98992.16
2022-11-19T01:58:56.409Z,99001.13
2022-11-19T02:01:40.176Z,99000.69
2022-11-19T02:04:25.257Z,99007.97
2022-11-19T02:07:12.962Z,98986.41
2022-11-19T02:09:57.043Z,98986.16
2022-11-19T02:12:49.402Z,98985.84
2022-11-19T02:16:00.880Z,98994.56
2022-11-19T02:18:53.329Z,98985.03
2022-11-19T02:21:43.105Z,99008.84
2022-11-19T02:24:43.330Z,99017.81
2022-11-19T02:28:08.172Z,99026.22
2022-11-19T02:30:55.668Z,99035.88
2022-11-19T02:33:46.492Z,99047.19
2022-11-19T02:36:37.169Z,99055.31
2022-11-19T02:39:27.203Z,99066.00
2022-11-19T02:42:19.661Z,99075.78
2022-11-19T02:45:08.305Z,99049.78
2022-11-19T02:47:56.339Z,99083.00
2022-11-19T02:50:46.132Z,99088.25
2022-11-19T02:53:30.342Z,99103.88
2022-11-19T02:56:17.764Z,99099.44
2022-11-19T02:59:20.308Z,99069.63
2022-11-19T03:02:23.912Z,99070.09
2022-11-19T03:05:14.645Z,99065.19
2022-11-19T03:07:59.248Z,99114.34
2022-11-19T03:10:49.413Z,99116.31
2022-11-19T03:13:59.965Z,99125.03
2022-11-19T03:16:50.706Z,99112.44
2022-11-19T03:19:38.522Z,99146.56
2022-11-19T03:22:28.190Z,99152.53
2022-11-19T03:25:17.615Z,99141.09
2022-11-19T03:28:05.969Z,99168.59
2022-11-19T03:30:52.517Z,99165.03
2022-11-19T03:33:41.362Z,99169.72
2022-11-19T03:36:28.124Z,99170.06
2022-11-19T03:39:15.586Z,99164.47
2022-11-19T03:41:59.651Z,99187.00
2022-11-19T03:44:49.111Z,99187.63
2022-11-19T03:47:36.762Z,99144.16
2022-11-19T03:50:25.250Z,99219.25
2022-11-19T03:53:09.188Z,99205.09
2022-11-19T03:55:59.656Z,99199.91
2022-11-19T03:58:46.627Z,99229.50
2022-11-19T04:01:31.296Z,99229.50
2022-11-19T04:04:32.812Z,99237.66
2022-11-19T04:07:18.514Z,99241.53
2022-11-19T04:10:02.300Z,99258.13
2022-11-19T04:12:48.539Z,99265.84
2022-11-19T04:15:32.377Z,99260.78
2022-11-19T04:18:16.297Z,99267.38
2022-11-19T04:21:00.380Z,99272.41
2022-11-19T04:23:44.372Z,99258.97
2022-11-19T04:26:28.451Z,99269.47
2022-11-19T04:29:13.822Z,99257.53
2022-11-19T04:31:57.684Z,99306.09
2022-11-19T04:34:41.678Z,99265.28
2022-11-19T04:37:25.664Z,99320.03
2022-11-19T04:40:10.840Z,99256.88
2022-11-19T04:42:54.772Z,99338.38
2022-11-19T04:45:40.275Z,99323.00
2022-11-19T04:48:24.242Z,99306.09
2022-11-19T04:51:09.608Z,99326.94
2022-11-19T04:53:53.791Z,99319.09
2022-11-19T04:56:38.558Z,99323.25
2022-11-19T04:59:22.864Z,99338.84
2022-11-19T05:02:08.434Z,99382.25
2022-11-19T05:04:52.371Z,99329.44
2022-11-19T05:07:36.361Z,99385.78
2022-11-19T05:10:20.467Z,99357.16
2022-11-19T05:13:04.465Z,99404.72
2022-11-19T05:15:48.534Z,99363.50
2022-11-19T05:18:34.104Z,99407.63
2022-11-19T05:21:18.047Z,99415.03
2022-11-19T05:24:02.177Z,99406.69
2022-11-19T05:26:46.188Z,99418.13
2022-11-19T05:29:30.125Z,99423.72
2022-11-19T05:32:14.087Z,99393.78
2022-11-19T05:34:59.640Z,99411.19
2022-11-19T05:37:43.582Z,99447.91
2022-11-19T05:40:27.877Z,99472.94
2022-11-19T05:43:11.907Z,99442.72
2022-11-19T05:45:55.880Z,99475.34
2022-11-19T05:48:39.934Z,99452.94
2022-11-19T05:51:25.072Z,99509.94
2022-11-19T05:54:08.968Z,99516.59
2022-11-19T05:56:52.824Z,99517.00
2022-11-19T05:59:42.251Z,99537.66
2022-11-19T06:02:27.418Z,99546.19
2022-11-19T06:05:12.327Z,99548.94
2022-11-19T06:07:57.391Z,99550.38
2022-11-19T06:10:41.126Z,99557.97
2022-11-19T06:13:24.872Z,99496.63
2022-11-19T06:16:08.978Z,99576.91
2022-11-19T06:18:52.724Z,99576.06
2022-11-19T06:21:36.651Z,99579.56
2022-11-19T06:24:22.644Z,99579.88
2022-11-19T06:27:06.401Z,99590.03
2022-11-19T06:29:55.018Z,99600.31
2022-11-19T06:32:39.909Z,99592.88
2022-11-19T06:35:23.646Z,99503.03
2022-11-19T06:38:07.308Z,99630.66
2022-11-19T06:40:52.625Z,99636.47
2022-11-19T06:43:36.595Z,99603.97
2022-11-19T06:46:20.610Z,99605.53
2022-11-19T06:49:05.986Z,99590.72
2022-11-19T06:51:49.905Z,99628.88
2022-11-19T06:54:35.791Z,99626.78
2022-11-19T06:57:23.249Z,99586.31
2022-11-19T07:00:08.569Z,99627.84
2022-11-19T07:02:52.629Z,99599.78
2022-11-19T07:05:36.734Z,99615.06
2022-11-19T07:08:20.834Z,99633.22
2022-11-19T07:11:26.119Z,99621.09
2022-11-19T07:14:11.844Z,99630.00
2022-11-19T07:16:57.573Z,99659.41
2022-11-19T07:19:41.727Z,99617.56
2022-11-19T07:22:25.623Z,99647.00
2022-11-19T07:25:12.743Z,99646.19
2022-11-19T07:27:56.644Z,99626.41
2022-11-19T07:30:42.209Z,99640.25
2022-11-19T07:33:26.241Z,99671.91
2022-11-19T07:36:17.009Z,99666.19
2022-11-19T07:39:02.413Z,99638.75
2022-11-19T07:42:03.933Z,99641.41
2022-11-19T07:44:54.646Z,99649.59
2022-11-19T07:47:40.502Z,99677.59
2022-11-19T07:50:24.490Z,99650.47
2022-11-19T07:53:08.622Z,99696.31
2022-11-19T07:55:52.650Z,99672.50
2022-11-19T07:58:36.622Z,99669.75
2022-11-19T08:01:22.670Z,99686.28
2022-11-19T08:04:08.118Z,99687.41
2022-11-19T08:06:52.204Z,99700.63
2022-11-19T08:09:36.151Z,99718.59
2022-11-19T08:12:19.906Z,99744.75
2022-11-19T08:15:03.670Z,99732.09
2022-11-19T08:18:04.718Z,99734.06
2022-11-19T08:20:49.788Z,99752.63
2022-11-19T08:23:34.253Z,99749.53
2022-11-19T08:26:17.892Z,99746.63
2022-11-19T08:29:01.615Z,99739.44
2022-11-19T08:31:47.750Z,99742.25
2022-11-19T08:34:32.984Z,99724.34
2022-11-19T08:37:18.261Z,99759.59
2022-11-19T08:40:02.123Z,99767.31
2022-11-19T08:43:00.974Z,99752.19
2022-11-19T08:45:53.850Z,99760.56
2022-11-19T08:48:37.672Z,99759.22
2022-11-19T08:51:21.400Z,99755.91
2022-11-19T08:54:06.811Z,99759.00
2022-11-19T08:56:50.617Z,99757.56
2022-11-19T08:59:34.638Z,99758.56
2022-11-19T09:02:18.405Z,99771.72
2022-11-19T09:05:02.224Z,99750.56
2022-11-19T09:07:46.631Z,99762.13
2022-11-19T09:10:31.853Z,99755.66
2022-11-19T09:13:15.665Z,99762.06
2022-11-19T09:15:59.444Z,99761.06
2022-11-19T09:18:43.627Z,99760.25
2022-11-19T09:21:27.302Z,99761.53
2022-11-19T09:24:11.056Z,99765.25
2022-11-19T09:26:59.597Z,99772.47
2022-11-19T09:29:46.270Z,99779.22
2022-11-19T09:32:30.274Z,99711.13
2022-11-19T09:35:14.114Z,99786.84
2022-11-19T09:37:57.896Z,99771.34
2022-11-19T09:40:46.223Z,99800.06
2022-11-19T09:43:45.645Z,99796.81
2022-11-19T09:46:35.043Z,99791.00
2022-11-19T09:49:25.964Z,99778.34
2022-11-19T09:52:15.221Z,99791.19
2022-11-19T09:54:59.119Z,99796.59
2022-11-19T09:57:48.926Z,99803.69
2022-11-19T10:00:34.633Z,99809.06
2022-11-19T10:03:22.108Z,99808.94
2022-11-19T10:06:24.210Z,99805.69
2022-11-19T10:09:26.197Z,99803.09
2022-11-19T10:12:23.205Z,99794.00
2022-11-19T10:15:17.424Z,99811.00
2022-11-19T10:18:13.497Z,99802.03
2022-11-19T10:21:05.906Z,99804.78
2022-11-19T10:23:54.733Z,99791.84
2022-11-19T10:26:41.726Z,99806.94
2022-11-19T10:29:29.559Z,99810.22
2022-11-19T10:32:24.116Z,99811.16
2022-11-19T10:35:17.648Z,99812.66
2022-11-19T10:38:04.183Z,99820.09
2022-11-19T10:40:53.167Z,99809.16
2022-11-19T10:43:46.260Z,99822.94
2022-11-19T10:46:30.298Z,99822.56
2022-11-19T10:49:13.977Z,99814.53
2022-11-19T10:51:59.312Z,99825.19
2022-11-19T10:54:43.442Z,99795.38
2022-11-19T10:57:31.182Z,99790.94
2022-11-19T11:00:16.604Z,99837.56
2022-11-19T11:03:03.897Z,99837.19
2022-11-19T11:06:06.891Z,99829.88
2022-11-19T11:08:54.103Z,99844.97
2022-11-19T11:11:51.722Z,99829.50
2022-11-19T11:14:58.687Z,99846.63
2022-11-19T11:17:44.759Z,99851.53
2022-11-19T11:20:30.011Z,99837.34
2022-11-19T11:23:17.247Z,99840.19
2022-11-19T11:26:08.183Z,99846.53
2022-11-19T11:28:58.450Z,99863.31
2022-11-19T11:31:43.708Z,99854.91
2022-11-19T11:34:32.556Z,99874.69
2022-11-19T11:37:16.744Z,99880.13
2022-11-19T11:40:01.456Z,99873.81
2022-11-19T11:42:48.333Z,99874.97
2022-11-19T11:45:34.412Z,99845.22
2022-11-19T11:48:23.034Z,99864.97
2022-11-19T11:51:07.255Z,99823.03
2022-11-19T11:54:05.345Z,99856.81
2022-11-19T11:56:49.658Z,99852.00
2022-11-19T11:59:35.021Z,99843.16
2022-11-19T12:02:27.317Z,99826.16
2022-11-19T12:05:19.483Z,99817.09
2022-11-19T12:08:06.711Z,99832.16
2022-11-19T12:10:57.887Z,99807.00
2022-11-19T12:13:55.114Z,99837.56
2022-11-19T12:16:48.020Z,99825.41
2022-11-19T12:19:46.723Z,99836.47
2022-11-19T12:22:43.464Z,99803.72
2022-11-19T12:25:33.404Z,99825.22
2022-11-19T12:28:41.907Z,99804.59
2022-11-19T12:31:42.570Z,99842.19
2022-11-19T12:34:53.527Z,99832.00
2022-11-19T12:37:58.507Z,99790.72
2022-11-19T12:40:52.171Z,99795.00
2022-11-19T12:43:55.150Z,99829.13
2022-11-19T12:46:50.032Z,99823.72
2022-11-19T12:49:56.269Z,99840.59
2022-11-19T12:53:00.106Z,99817.97
2022-11-19T12:55:53.218Z,99821.84
2022-11-19T12:58:46.612Z,99832.63
2022-11-19T13:01:35.655Z,99825.31
2022-11-19T13:04:24.818Z,99836.75
2022-11-19T13:07:14.707Z,99835.22
2022-11-19T13:10:04.380Z,99843.13
2022-11-19T13:12:53.083Z,99842.78
2022-11-19T13:15:41.260Z,99816.63
2022-11-19T13:18:28.843Z,99858.25
2022-11-19T13:21:22.490Z,99848.59
2022-11-19T13:24:25.471Z,99878.34
2022-11-19T13:27:20.208Z,99873.22
2022-11-19T13:30:15.316Z,99898.31
2022-11-19T13:33:06.592Z,99892.75
2022-11-19T13:35:59.470Z,99894.63
2022-11-19T13:38:49.420Z,99895.59
2022-11-19T13:42:00.450Z,99872.41
2022-11-19T13:44:43.556Z,99901.31
2022-11-19T13:47:32.391Z,99900.22
2022-11-19T13:50:20.402Z,99918.50
2022-11-19T13:53:07.787Z,99916.28
2022-11-19T13:55:57.187Z,99819.41
2022-11-19T13:58:46.988Z,99899.72
2022-11-19T14:01:49.615Z,99921.44
2022-11-19T14:04:59.540Z,99934.47
2022-11-19T14:07:57.359Z,99945.09
2022-11-19T14:10:46.787Z,99932.91
2022-11-19T14:13:52.011Z,99937.09
2022-11-19T14:17:03.503Z,99938.91
2022-11-19T14:20:08.817Z,99933.31
2022-11-19T14:23:13.746Z,99932.41
2022-11-19T14:26:14.998Z,99835.81
2022-11-19T14:29:00.154Z,99945.50
2022-11-19T14:32:17.111Z,99938.91
2022-11-19T14:35:42.277Z,99929.84
2022-11-19T14:38:39.515Z,99944.91
2022-11-19T14:41:30.263Z,99940.59
2022-11-19T14:44:33.752Z,99909.34
2022-11-19T14:47:34.443Z,99936.41
2022-11-19T14:50:27.266Z,99934.19
2022-11-19T14:53:20.632Z,99941.94
2022-11-19T14:56:13.521Z,99942.34
2022-11-19T14:59:08.749Z,99931.44
2022-11-19T15:01:59.194Z,99946.44
2022-11-19T15:04:52.481Z,99952.78
2022-11-19T15:07:40.058Z,99965.56
2022-11-19T15:10:47.345Z,99972.97
2022-11-19T15:13:32.646Z,99964.47
2022-11-19T15:16:19.507Z,99976.56
2022-11-19T15:19:33.915Z,99976.09
2022-11-19T15:22:34.271Z,99970.91
2022-11-19T15:25:30.535Z,99973.44
2022-11-19T15:28:26.895Z,99946.66
2022-11-19T15:31:27.188Z,99982.41
2022-11-19T15:35:04.084Z,99936.91
2022-11-19T15:37:52.548Z,99959.09
2022-11-19T15:40:36.768Z,99953.63
2022-11-19T15:43:28.512Z,99960.66
2022-11-19T15:46:16.154Z,99949.91
2022-11-19T15:49:07.544Z,99957.13
2022-11-19T15:52:07.369Z,99961.41
2022-11-19T15:54:52.543Z,99969.84
2022-11-19T15:57:43.224Z,99976.63
2022-11-19T16:00:27.643Z,99973.91
2022-11-19T16:03:12.015Z,99980.53
2022-11-19T16:06:04.774Z,99987.25
2022-11-19T16:08:52.920Z,99985.00
2022-11-19T16:11:56.734Z,99968.88
2022-11-19T16:14:58.104Z,99972.38
2022-11-19T16:17:47.647Z,99979.28
2022-11-19T16:20:31.447Z,99952.31
2022-11-19T16:23:19.184Z,99985.84
2022-11-19T16:26:03.737Z,99983.75
2022-11-19T16:28:49.088Z,99977.81
2022-11-19T16:31:33.040Z,99971.47
2022-11-19T16:34:23.548Z,99947.88
2022-11-19T16:37:07.361Z,99950.88
2022-11-19T16:39:53.061Z,99999.19
2022-11-19T16:42:37.835Z,99999.78
2022-11-19T16:45:25.781Z,99988.13
2022-11-19T16:48:59.620Z,99984.97
2022-11-19T16:51:53.317Z,99999.72
2022-11-19T16:54:46.762Z,99993.69
2022-11-19T16:57:31.763Z,99990.97
2022-11-19T17:00:18.474Z,100004.19
2022-11-19T17:03:16.858Z,100003.19
2022-11-19T17:06:00.765Z,100006.41
2022-11-19T17:08:56.782Z,99995.94
2022-11-19T17:12:09.381Z,99985.75
2022-11-19T17:14:59.137Z,100000.78
2022-11-19T17:17:43.556Z,99994.34
2022-11-19T17:20:56.447Z,99986.59
2022-11-19T17:23:49.106Z,99994.38
2022-11-19T17:26:32.935Z,99994.72
2022-11-19T17:29:23.357Z,99994.28
2022-11-19T17:32:07.194Z,99984.56
2022-11-19T17:34:55.270Z,99994.28
2022-11-19T17:37:40.333Z,99993.41
2022-11-19T17:40:24.148Z,99988.91
2022-11-19T17:43:29.263Z,99971.03
2022-11-19T17:46:13.045Z,99983.22
2022-11-19T17:48:57.036Z,100005.94
2022-11-19T17:51:40.833Z,100004.31
2022-11-19T17:54:26.164Z,100009.94
2022-11-19T17:57:10.108Z,100005.50
2022-11-19T17:59:53.908Z,100003.53
2022-11-19T18:02:37.871Z,100010.50
2022-11-19T18:05:24.238Z,99994.81
2022-11-19T18:08:08.031Z,100011.81
2022-11-19T18:10:53.828Z,99957.03
2022-11-19T18:13:38.527Z,99987.38
2022-11-19T18:16:24.283Z,100014.53
2022-11-19T18:19:13.436Z,99970.19
2022-11-19T18:21:57.856Z,100008.88
2022-11-19T18:24:42.040Z,99965.97
2022-11-19T18:27:27.724Z,99999.38
2022-11-19T18:30:13.116Z,99983.84
2022-11-19T18:32:57.096Z,99941.09
2022-11-19T18:35:40.959Z,99981.91
2022-11-19T18:38:25.065Z,99973.63
2022-11-19T18:41:11.626Z,99963.09
2022-11-19T18:44:14.069Z,99956.56
2022-11-19T18:46:58.014Z,99958.69
2022-11-19T18:49:42.577Z,99965.81
2022-11-19T18:52:26.426Z,99973.78
2022-11-19T18:55:11.272Z,99989.59
2022-11-19T18:57:56.427Z,100002.22
2022-11-19T19:00:42.637Z,100014.53
2022-11-19T19:03:26.597Z,100003.28
2022-11-19T19:06:10.674Z,100007.19
2022-11-19T19:08:54.665Z,99994.81
2022-11-19T19:11:56.169Z,99986.72
2022-11-19T19:14:40.168Z,100001.44
2022-11-19T19:17:25.949Z,99983.03
2022-11-19T19:20:11.433Z,99977.56
2022-11-19T19:22:55.378Z,99971.38
2022-11-19T19:25:39.414Z,99984.00
2022-11-19T19:28:23.326Z,99957.78
2022-11-19T19:31:08.165Z,99990.84
2022-11-19T19:33:53.991Z,99987.81
2022-11-19T19:36:38.160Z,99971.16
2022-11-19T19:39:22.392Z,99998.38
2022-11-19T19:42:06.602Z,99995.28
2022-11-19T19:44:50.586Z,100004.38
2022-11-19T19:47:34.463Z,99995.25
2022-11-19T19:50:19.875Z,99995.75
2022-11-19T19:53:04.175Z,100001.56
2022-11-19T19:55:48.140Z,99978.53
2022-11-19T19:58:32.562Z,99989.84
2022-11-19T20:01:18.650Z,99983.75
2022-11-19T20:04:04.742Z,99973.94
2022-11-19T20:06:51.909Z,99971.41
2022-11-19T20:09:35.896Z,99973.56
2022-11-19T20:12:19.740Z,99981.56
2022-11-19T20:15:04.367Z,99984.22
2022-11-19T20:17:48.373Z,99976.72
2022-11-19T20:20:32.132Z,99985.22
2022-11-19T20:23:17.405Z,99985.69
2022-11-19T20:26:02.919Z,99982.13
2022-11-19T20:28:47.031Z,99872.59
2022-11-19T20:31:32.146Z,99948.50
2022-11-19T20:34:16.607Z,99976.91
2022-11-19T20:37:00.364Z,99967.56
2022-11-19T20:39:45.574Z,99976.00
2022-11-19T20:43:00.964Z,99989.25
2022-11-19T20:45:44.739Z,99953.03
2022-11-19T20:48:28.558Z,99989.00
2022-11-19T20:51:12.502Z,99976.09
2022-11-19T20:53:56.266Z,99979.50
2022-11-19T20:56:41.685Z,99980.19
2022-11-19T20:59:26.781Z,99980.03
2022-11-19T21:02:11.141Z,99976.59
2022-11-19T21:04:55.719Z,99951.38
2022-11-19T21:07:40.026Z,99947.72
2022-11-19T21:10:23.912Z,99935.63
2022-11-19T21:13:09.076Z,99914.75
2022-11-19T21:15:53.289Z,99913.16
2022-11-19T21:18:38.142Z,99927.53
2022-11-19T21:21:24.133Z,99899.16
2022-11-19T21:24:09.224Z,99900.16
2022-11-19T21:26:53.012Z,99936.41
2022-11-19T21:29:38.638Z,99937.69
2022-11-19T21:32:22.428Z,99935.19
2022-11-19T21:35:07.039Z,99924.50
2022-11-19T21:37:50.833Z,99913.47
2022-11-19T21:40:38.548Z,99914.72
2022-11-19T21:43:23.393Z,99921.19
2022-11-19T21:46:09.695Z,99929.34
2022-11-19T21:48:53.449Z,99902.66
2022-11-19T21:51:37.231Z,99916.84
2022-11-19T21:54:20.979Z,99919.13
2022-11-19T21:57:04.866Z,99910.25
2022-11-19T21:59:48.671Z,99899.38
2022-11-19T22:02:34.155Z,99902.78
2022-11-19T22:05:18.141Z,99908.94
2022-11-19T22:08:02.622Z,99881.28
2022-11-19T22:10:50.027Z,99908.50
2022-11-19T22:13:33.780Z,99890.28
2022-11-19T22:16:17.576Z,99896.09
2022-11-19T22:19:02.746Z,99873.56
2022-11-19T22:21:46.751Z,99883.78
2022-11-19T22:24:30.651Z,99877.56
2022-11-19T22:27:14.468Z,99889.66
2022-11-19T22:30:01.752Z,99887.41
2022-11-19T22:32:48.375Z,99874.81
2022-11-19T22:35:33.524Z,99881.16
2022-11-19T22:38:17.200Z,99851.31
2022-11-19T22:41:03.639Z,99818.47
2022-11-19T22:43:47.495Z,99841.53
2022-11-19T22:46:31.190Z,99857.84
2022-11-19T22:49:14.997Z,99870.09
2022-11-19T22:52:00.091Z,99856.66
2022-11-19T22:54:43.939Z,99845.97
2022-11-19T22:57:27.996Z,99848.34
2022-11-19T23:00:14.285Z,99824.13
2022-11-19T23:02:58.143Z,99819.53
2022-11-19T23:05:42.211Z,99839.53
2022-11-19T23:08:27.855Z,99829.34
2022-11-19T23:11:11.818Z,99847.31
2022-11-19T23:13:54.491Z,99829.91
2022-11-19T23:16:39.291Z,99834.44
2022-11-19T23:19:23.551Z,99820.69
2022-11-19T23:22:07.809Z,99837.47
2022-11-19T23:24:52.996Z,99838.72
2022-11-19T23:27:36.809Z,99843.84
2022-11-19T23:30:20.649Z,99853.91
2022-11-19T23:33:04.605Z,99847.00
2022-11-19T23:35:48.817Z,99823.34
2022-11-19T23:38:32.555Z,99830.09
2022-11-19T23:41:19.465Z,99814.13
2022-11-19T23:44:03.624Z,99811.59
2022-11-19T23:46:47.409Z,99815.81
2022-11-19T23:49:31.240Z,99822.28
2022-11-19T23:52:14.932Z,99828.88
2022-11-19T23:54:58.627Z,99820.59
2022-11-19T23:57:43.767Z,99833.56
